sensor_id;sensor_type;location;lat;lon;timestamp;P1;durP1;ratioP1;P2;durP2;ratioP2
5646;SDS011;2845;48.626;9.362;2023-05-14T00:00:38;4.57;;;2.25;;
5646;SDS011;2845;48.626;9.362;2023-05-14T00:03:12;5.32;;;2.88;;
5646;SDS011;2845;48.626;9.362;2023-05-14T00:05:47;4.10;;;2.05;;
5646;SDS011;2845;48.626;9.362;2023-05-14T00:08:22;4.22;;;2.22;;
5646;SDS011;2845;48.626;9.362;2023-05-14T00:10:57;4.13;;;2.53;;
5646;SDS011;2845;48.626;9.362;2023-05-14T00:13:31;3.60;;;1.90;;
5646;SDS011;2845;48.626;9.362;2023-05-14T00:16:05;4.95;;;2.60;;
5646;SDS011;2845;48.626;9.362;2023-05-14T00:18:40;4.18;;;2.40;;
5646;SDS011;2845;48.626;9.362;2023-05-14T00:21:14;3.13;;;2.05;;
5646;SDS011;2845;48.626;9.362;2023-05-14T00:23:48;3.95;;;2.42;;
5646;SDS011;2845;48.626;9.362;2023-05-14T00:26:24;3.80;;;2.30;;
5646;SDS011;2845;48.626;9.362;2023-05-14T00:28:58;5.25;;;2.15;;
5646;SDS011;2845;48.626;9.362;2023-05-14T00:31:32;6.68;;;2.75;;
5646;SDS011;2845;48.626;9.362;2023-05-14T00:34:06;4.38;;;2.72;;
5646;SDS011;2845;48.626;9.362;2023-05-14T00:36:40;4.43;;;2.10;;
5646;SDS011;2845;48.626;9.362;2023-05-14T00:39:14;5.25;;;2.55;;
5646;SDS011;2845;48.626;9.362;2023-05-14T00:41:50;4.70;;;2.40;;
5646;SDS011;2845;48.626;9.362;2023-05-14T00:44:24;4.88;;;2.60;;
5646;SDS011;2845;48.626;9.362;2023-05-14T00:46:58;6.20;;;3.03;;
5646;SDS011;2845;48.626;9.362;2023-05-14T00:49:33;6.55;;;2.78;;
5646;SDS011;2845;48.626;9.362;2023-05-14T00:52:07;4.03;;;2.70;;
5646;SDS011;2845;48.626;9.362;2023-05-14T00:54:43;4.25;;;2.70;;
5646;SDS011;2845;48.626;9.362;2023-05-14T00:57:20;5.75;;;2.78;;
5646;SDS011;2845;48.626;9.362;2023-05-14T00:59:54;4.30;;;2.47;;
5646;SDS011;2845;48.626;9.362;2023-05-14T01:02:29;5.05;;;3.03;;
5646;SDS011;2845;48.626;9.362;2023-05-14T01:05:03;5.78;;;3.15;;
5646;SDS011;2845;48.626;9.362;2023-05-14T01:07:42;5.18;;;2.80;;
5646;SDS011;2845;48.626;9.362;2023-05-14T01:10:26;5.07;;;2.90;;
5646;SDS011;2845;48.626;9.362;2023-05-14T01:13:09;5.80;;;2.53;;
5646;SDS011;2845;48.626;9.362;2023-05-14T01:15:53;5.25;;;2.88;;
5646;SDS011;2845;48.626;9.362;2023-05-14T01:18:29;4.68;;;2.67;;
5646;SDS011;2845;48.626;9.362;2023-05-14T01:21:10;5.13;;;2.60;;
5646;SDS011;2845;48.626;9.362;2023-05-14T01:24:01;6.10;;;2.80;;
5646;SDS011;2845;48.626;9.362;2023-05-14T01:26:35;7.03;;;3.15;;
5646;SDS011;2845;48.626;9.362;2023-05-14T01:29:12;5.32;;;2.47;;
5646;SDS011;2845;48.626;9.362;2023-05-14T01:31:52;4.75;;;2.50;;
5646;SDS011;2845;48.626;9.362;2023-05-14T01:34:29;5.18;;;2.65;;
5646;SDS011;2845;48.626;9.362;2023-05-14T01:37:05;5.13;;;2.65;;
5646;SDS011;2845;48.626;9.362;2023-05-14T01:39:40;6.00;;;3.08;;
5646;SDS011;2845;48.626;9.362;2023-05-14T01:42:15;4.30;;;2.58;;
5646;SDS011;2845;48.626;9.362;2023-05-14T01:44:49;5.43;;;2.80;;
5646;SDS011;2845;48.626;9.362;2023-05-14T01:47:23;5.45;;;3.00;;
5646;SDS011;2845;48.626;9.362;2023-05-14T01:49:58;4.65;;;2.45;;
5646;SDS011;2845;48.626;9.362;2023-05-14T01:52:33;5.00;;;2.72;;
5646;SDS011;2845;48.626;9.362;2023-05-14T01:55:07;5.07;;;2.60;;
5646;SDS011;2845;48.626;9.362;2023-05-14T01:57:42;4.45;;;2.67;;
5646;SDS011;2845;48.626;9.362;2023-05-14T02:00:16;5.07;;;2.63;;
5646;SDS011;2845;48.626;9.362;2023-05-14T02:02:51;5.45;;;3.30;;
5646;SDS011;2845;48.626;9.362;2023-05-14T02:05:25;4.78;;;2.53;;
5646;SDS011;2845;48.626;9.362;2023-05-14T02:08:01;4.85;;;2.60;;
5646;SDS011;2845;48.626;9.362;2023-05-14T02:10:35;4.15;;;2.40;;
5646;SDS011;2845;48.626;9.362;2023-05-14T02:13:09;6.00;;;2.88;;
5646;SDS011;2845;48.626;9.362;2023-05-14T02:15:43;4.50;;;2.63;;
5646;SDS011;2845;48.626;9.362;2023-05-14T02:18:17;4.70;;;2.97;;
5646;SDS011;2845;48.626;9.362;2023-05-14T02:20:51;4.63;;;2.72;;
5646;SDS011;2845;48.626;9.362;2023-05-14T02:23:26;5.22;;;2.78;;
5646;SDS011;2845;48.626;9.362;2023-05-14T02:26:12;4.28;;;2.25;;
5646;SDS011;2845;48.626;9.362;2023-05-14T02:28:47;4.82;;;2.78;;
5646;SDS011;2845;48.626;9.362;2023-05-14T02:31:21;7.28;;;3.20;;
5646;SDS011;2845;48.626;9.362;2023-05-14T02:33:55;5.88;;;3.28;;
5646;SDS011;2845;48.626;9.362;2023-05-14T02:36:29;4.90;;;2.85;;
5646;SDS011;2845;48.626;9.362;2023-05-14T02:39:05;6.35;;;2.95;;
5646;SDS011;2845;48.626;9.362;2023-05-14T02:41:39;5.35;;;2.88;;
5646;SDS011;2845;48.626;9.362;2023-05-14T02:44:13;5.53;;;3.10;;
5646;SDS011;2845;48.626;9.362;2023-05-14T02:46:47;6.63;;;2.65;;
5646;SDS011;2845;48.626;9.362;2023-05-14T02:49:21;5.22;;;2.55;;
5646;SDS011;2845;48.626;9.362;2023-05-14T02:51:56;5.88;;;2.55;;
5646;SDS011;2845;48.626;9.362;2023-05-14T02:54:33;4.60;;;2.83;;
5646;SDS011;2845;48.626;9.362;2023-05-14T02:57:07;5.22;;;3.08;;
5646;SDS011;2845;48.626;9.362;2023-05-14T02:59:41;6.15;;;2.95;;
5646;SDS011;2845;48.626;9.362;2023-05-14T03:02:16;3.88;;;2.40;;
5646;SDS011;2845;48.626;9.362;2023-05-14T03:04:50;5.75;;;2.45;;
5646;SDS011;2845;48.626;9.362;2023-05-14T03:07:24;5.05;;;2.75;;
5646;SDS011;2845;48.626;9.362;2023-05-14T03:10:00;5.60;;;2.35;;
5646;SDS011;2845;48.626;9.362;2023-05-14T03:12:35;4.72;;;2.33;;
5646;SDS011;2845;48.626;9.362;2023-05-14T03:15:09;5.25;;;2.45;;
5646;SDS011;2845;48.626;9.362;2023-05-14T03:17:44;4.07;;;2.10;;
5646;SDS011;2845;48.626;9.362;2023-05-14T03:20:18;6.13;;;3.25;;
5646;SDS011;2845;48.626;9.362;2023-05-14T03:22:52;4.93;;;2.47;;
5646;SDS011;2845;48.626;9.362;2023-05-14T03:25:28;4.78;;;2.55;;
5646;SDS011;2845;48.626;9.362;2023-05-14T03:28:03;4.70;;;2.42;;
5646;SDS011;2845;48.626;9.362;2023-05-14T03:30:37;4.20;;;2.42;;
5646;SDS011;2845;48.626;9.362;2023-05-14T03:33:12;4.50;;;2.60;;
5646;SDS011;2845;48.626;9.362;2023-05-14T03:35:46;4.20;;;2.58;;
5646;SDS011;2845;48.626;9.362;2023-05-14T03:38:20;4.68;;;2.45;;
5646;SDS011;2845;48.626;9.362;2023-05-14T03:40:56;4.82;;;2.47;;
5646;SDS011;2845;48.626;9.362;2023-05-14T03:43:30;4.88;;;2.80;;
5646;SDS011;2845;48.626;9.362;2023-05-14T03:46:04;4.43;;;2.50;;
5646;SDS011;2845;48.626;9.362;2023-05-14T03:48:38;5.35;;;2.42;;
5646;SDS011;2845;48.626;9.362;2023-05-14T03:51:14;5.35;;;2.83;;
5646;SDS011;2845;48.626;9.362;2023-05-14T03:53:48;4.40;;;2.45;;
5646;SDS011;2845;48.626;9.362;2023-05-14T03:56:24;3.80;;;2.50;;
5646;SDS011;2845;48.626;9.362;2023-05-14T03:58:58;3.95;;;2.28;;
5646;SDS011;2845;48.626;9.362;2023-05-14T04:01:32;4.60;;;2.33;;
5646;SDS011;2845;48.626;9.362;2023-05-14T04:04:06;4.60;;;2.20;;
5646;SDS011;2845;48.626;9.362;2023-05-14T04:06:41;6.00;;;3.17;;
5646;SDS011;2845;48.626;9.362;2023-05-14T04:09:15;4.85;;;2.40;;
5646;SDS011;2845;48.626;9.362;2023-05-14T04:11:51;4.90;;;2.58;;
5646;SDS011;2845;48.626;9.362;2023-05-14T04:14:25;4.65;;;2.47;;
5646;SDS011;2845;48.626;9.362;2023-05-14T04:16:59;5.80;;;2.33;;
5646;SDS011;2845;48.626;9.362;2023-05-14T04:19:33;4.65;;;2.50;;
5646;SDS011;2845;48.626;9.362;2023-05-14T04:22:07;4.53;;;2.22;;
5646;SDS011;2845;48.626;9.362;2023-05-14T04:24:41;4.32;;;2.08;;
5646;SDS011;2845;48.626;9.362;2023-05-14T04:27:19;4.97;;;2.70;;
5646;SDS011;2845;48.626;9.362;2023-05-14T04:29:54;3.53;;;2.17;;
5646;SDS011;2845;48.626;9.362;2023-05-14T04:32:28;4.60;;;2.40;;
5646;SDS011;2845;48.626;9.362;2023-05-14T04:35:03;4.22;;;2.35;;
5646;SDS011;2845;48.626;9.362;2023-05-14T04:37:38;4.07;;;2.50;;
5646;SDS011;2845;48.626;9.362;2023-05-14T04:40:13;5.25;;;2.28;;
5646;SDS011;2845;48.626;9.362;2023-05-14T04:42:50;5.15;;;2.47;;
5646;SDS011;2845;48.626;9.362;2023-05-14T04:45:24;6.00;;;2.50;;
5646;SDS011;2845;48.626;9.362;2023-05-14T04:47:58;4.68;;;2.30;;
5646;SDS011;2845;48.626;9.362;2023-05-14T04:50:33;5.97;;;2.78;;
5646;SDS011;2845;48.626;9.362;2023-05-14T04:53:07;7.13;;;3.13;;
5646;SDS011;2845;48.626;9.362;2023-05-14T04:55:41;5.10;;;2.90;;
5646;SDS011;2845;48.626;9.362;2023-05-14T04:58:16;5.63;;;3.03;;
5646;SDS011;2845;48.626;9.362;2023-05-14T05:00:51;6.05;;;2.80;;
5646;SDS011;2845;48.626;9.362;2023-05-14T05:03:25;5.65;;;2.90;;
5646;SDS011;2845;48.626;9.362;2023-05-14T05:05:59;4.50;;;2.30;;
5646;SDS011;2845;48.626;9.362;2023-05-14T05:08:35;4.25;;;2.38;;
5646;SDS011;2845;48.626;9.362;2023-05-14T05:11:09;6.10;;;2.80;;
5646;SDS011;2845;48.626;9.362;2023-05-14T05:13:45;5.20;;;2.67;;
5646;SDS011;2845;48.626;9.362;2023-05-14T05:16:19;5.20;;;2.88;;
5646;SDS011;2845;48.626;9.362;2023-05-14T05:18:53;5.78;;;3.13;;
5646;SDS011;2845;48.626;9.362;2023-05-14T05:21:27;5.32;;;2.47;;
5646;SDS011;2845;48.626;9.362;2023-05-14T05:24:01;5.15;;;3.08;;
5646;SDS011;2845;48.626;9.362;2023-05-14T05:26:36;5.45;;;2.70;;
5646;SDS011;2845;48.626;9.362;2023-05-14T05:29:11;6.03;;;2.83;;
5646;SDS011;2845;48.626;9.362;2023-05-14T05:31:46;5.90;;;2.90;;
5646;SDS011;2845;48.626;9.362;2023-05-14T05:34:20;4.68;;;2.33;;
5646;SDS011;2845;48.626;9.362;2023-05-14T05:36:54;7.32;;;3.60;;
5646;SDS011;2845;48.626;9.362;2023-05-14T05:39:29;6.00;;;3.08;;
5646;SDS011;2845;48.626;9.362;2023-05-14T05:42:06;5.78;;;3.40;;
5646;SDS011;2845;48.626;9.362;2023-05-14T05:44:42;7.00;;;3.08;;
5646;SDS011;2845;48.626;9.362;2023-05-14T05:47:16;7.13;;;3.30;;
5646;SDS011;2845;48.626;9.362;2023-05-14T05:49:50;4.18;;;2.40;;
5646;SDS011;2845;48.626;9.362;2023-05-14T05:52:25;8.07;;;3.50;;
5646;SDS011;2845;48.626;9.362;2023-05-14T05:54:59;5.07;;;2.67;;
5646;SDS011;2845;48.626;9.362;2023-05-14T05:57:33;4.68;;;2.65;;
5646;SDS011;2845;48.626;9.362;2023-05-14T06:00:09;6.20;;;2.20;;
5646;SDS011;2845;48.626;9.362;2023-05-14T06:02:45;5.07;;;3.20;;
5646;SDS011;2845;48.626;9.362;2023-05-14T06:05:19;5.53;;;2.85;;
5646;SDS011;2845;48.626;9.362;2023-05-14T06:07:53;5.97;;;2.88;;
5646;SDS011;2845;48.626;9.362;2023-05-14T06:10:28;4.95;;;3.00;;
5646;SDS011;2845;48.626;9.362;2023-05-14T06:13:02;7.50;;;3.70;;
5646;SDS011;2845;48.626;9.362;2023-05-14T06:15:38;6.40;;;3.22;;
5646;SDS011;2845;48.626;9.362;2023-05-14T06:18:12;10.57;;;4.03;;
5646;SDS011;2845;48.626;9.362;2023-05-14T06:20:46;10.57;;;4.30;;
5646;SDS011;2845;48.626;9.362;2023-05-14T06:23:20;5.50;;;3.42;;
5646;SDS011;2845;48.626;9.362;2023-05-14T06:25:54;6.85;;;3.83;;
5646;SDS011;2845;48.626;9.362;2023-05-14T06:28:28;7.53;;;4.13;;
5646;SDS011;2845;48.626;9.362;2023-05-14T06:31:03;7.13;;;3.95;;
5646;SDS011;2845;48.626;9.362;2023-05-14T06:33:37;7.10;;;4.22;;
5646;SDS011;2845;48.626;9.362;2023-05-14T06:36:12;7.95;;;4.18;;
5646;SDS011;2845;48.626;9.362;2023-05-14T06:38:46;7.32;;;4.30;;
5646;SDS011;2845;48.626;9.362;2023-05-14T06:41:20;7.43;;;4.30;;
5646;SDS011;2845;48.626;9.362;2023-05-14T06:43:54;7.70;;;4.05;;
5646;SDS011;2845;48.626;9.362;2023-05-14T06:46:30;8.48;;;4.38;;
5646;SDS011;2845;48.626;9.362;2023-05-14T06:49:04;7.90;;;4.25;;
5646;SDS011;2845;48.626;9.362;2023-05-14T06:51:38;8.35;;;4.40;;
5646;SDS011;2845;48.626;9.362;2023-05-14T06:54:13;7.78;;;4.05;;
5646;SDS011;2845;48.626;9.362;2023-05-14T06:56:47;8.88;;;4.35;;
5646;SDS011;2845;48.626;9.362;2023-05-14T06:59:21;8.65;;;4.25;;
5646;SDS011;2845;48.626;9.362;2023-05-14T07:01:57;8.15;;;4.05;;
5646;SDS011;2845;48.626;9.362;2023-05-14T07:04:31;7.10;;;4.20;;
5646;SDS011;2845;48.626;9.362;2023-05-14T07:07:05;7.07;;;4.00;;
5646;SDS011;2845;48.626;9.362;2023-05-14T07:09:40;10.15;;;4.25;;
5646;SDS011;2845;48.626;9.362;2023-05-14T07:12:14;6.63;;;4.22;;
5646;SDS011;2845;48.626;9.362;2023-05-14T07:14:48;7.15;;;3.75;;
5646;SDS011;2845;48.626;9.362;2023-05-14T07:17:24;7.88;;;3.92;;
5646;SDS011;2845;48.626;9.362;2023-05-14T07:19:58;7.65;;;4.40;;
5646;SDS011;2845;48.626;9.362;2023-05-14T07:22:32;8.48;;;4.75;;
5646;SDS011;2845;48.626;9.362;2023-05-14T07:25:07;8.65;;;4.88;;
5646;SDS011;2845;48.626;9.362;2023-05-14T07:27:41;8.45;;;4.05;;
5646;SDS011;2845;48.626;9.362;2023-05-14T07:30:15;7.93;;;4.22;;
5646;SDS011;2845;48.626;9.362;2023-05-14T07:32:51;7.03;;;4.05;;
5646;SDS011;2845;48.626;9.362;2023-05-14T07:35:25;7.82;;;4.32;;
5646;SDS011;2845;48.626;9.362;2023-05-14T07:38:00;7.10;;;3.70;;
5646;SDS011;2845;48.626;9.362;2023-05-14T07:40:34;5.20;;;3.03;;
5646;SDS011;2845;48.626;9.362;2023-05-14T07:43:08;8.25;;;3.83;;
5646;SDS011;2845;48.626;9.362;2023-05-14T07:45:42;8.05;;;4.72;;
5646;SDS011;2845;48.626;9.362;2023-05-14T07:48:18;8.15;;;4.25;;
5646;SDS011;2845;48.626;9.362;2023-05-14T07:50:52;8.25;;;4.82;;
5646;SDS011;2845;48.626;9.362;2023-05-14T07:53:27;8.30;;;3.88;;
5646;SDS011;2845;48.626;9.362;2023-05-14T07:56:01;6.53;;;3.38;;
5646;SDS011;2845;48.626;9.362;2023-05-14T07:58:35;6.15;;;3.80;;
5646;SDS011;2845;48.626;9.362;2023-05-14T08:01:09;7.43;;;3.65;;
5646;SDS011;2845;48.626;9.362;2023-05-14T08:03:45;6.10;;;3.80;;
5646;SDS011;2845;48.626;9.362;2023-05-14T08:06:19;6.47;;;3.53;;
5646;SDS011;2845;48.626;9.362;2023-05-14T08:08:54;9.30;;;5.07;;
5646;SDS011;2845;48.626;9.362;2023-05-14T08:11:29;7.38;;;4.05;;
5646;SDS011;2845;48.626;9.362;2023-05-14T08:14:03;8.15;;;4.32;;
5646;SDS011;2845;48.626;9.362;2023-05-14T08:16:37;5.68;;;3.40;;
5646;SDS011;2845;48.626;9.362;2023-05-14T08:19:13;6.85;;;3.55;;
5646;SDS011;2845;48.626;9.362;2023-05-14T08:21:48;7.15;;;4.07;;
5646;SDS011;2845;48.626;9.362;2023-05-14T08:24:22;6.68;;;4.10;;
5646;SDS011;2845;48.626;9.362;2023-05-14T08:26:57;7.22;;;3.70;;
5646;SDS011;2845;48.626;9.362;2023-05-14T08:29:31;6.90;;;4.22;;
5646;SDS011;2845;48.626;9.362;2023-05-14T08:32:05;7.50;;;4.20;;
5646;SDS011;2845;48.626;9.362;2023-05-14T08:34:55;5.95;;;3.65;;
5646;SDS011;2845;48.626;9.362;2023-05-14T08:37:29;6.60;;;4.05;;
5646;SDS011;2845;48.626;9.362;2023-05-14T08:40:04;6.65;;;4.15;;
5646;SDS011;2845;48.626;9.362;2023-05-14T08:42:40;7.07;;;3.83;;
5646;SDS011;2845;48.626;9.362;2023-05-14T08:45:16;6.68;;;4.13;;
5646;SDS011;2845;48.626;9.362;2023-05-14T08:47:52;9.27;;;4.32;;
5646;SDS011;2845;48.626;9.362;2023-05-14T08:50:32;6.47;;;4.13;;
5646;SDS011;2845;48.626;9.362;2023-05-14T08:53:07;7.68;;;4.40;;
5646;SDS011;2845;48.626;9.362;2023-05-14T08:55:41;7.25;;;4.15;;
5646;SDS011;2845;48.626;9.362;2023-05-14T08:58:16;7.43;;;4.18;;
5646;SDS011;2845;48.626;9.362;2023-05-14T09:00:52;7.15;;;4.47;;
5646;SDS011;2845;48.626;9.362;2023-05-14T09:03:26;7.07;;;3.95;;
5646;SDS011;2845;48.626;9.362;2023-05-14T09:06:04;6.75;;;4.07;;
5646;SDS011;2845;48.626;9.362;2023-05-14T09:08:40;8.45;;;4.80;;
5646;SDS011;2845;48.626;9.362;2023-05-14T09:11:14;7.28;;;3.92;;
5646;SDS011;2845;48.626;9.362;2023-05-14T09:13:48;7.20;;;4.25;;
5646;SDS011;2845;48.626;9.362;2023-05-14T09:16:22;7.97;;;4.07;;
5646;SDS011;2845;48.626;9.362;2023-05-14T09:18:58;6.18;;;3.72;;
5646;SDS011;2845;48.626;9.362;2023-05-14T09:21:34;8.18;;;4.15;;
5646;SDS011;2845;48.626;9.362;2023-05-14T09:24:09;7.15;;;3.85;;
5646;SDS011;2845;48.626;9.362;2023-05-14T09:26:53;9.07;;;5.07;;
5646;SDS011;2845;48.626;9.362;2023-05-14T09:29:29;8.52;;;4.15;;
5646;SDS011;2845;48.626;9.362;2023-05-14T09:32:04;7.50;;;3.88;;
5646;SDS011;2845;48.626;9.362;2023-05-14T09:34:41;7.45;;;4.15;;
5646;SDS011;2845;48.626;9.362;2023-05-14T09:37:16;6.38;;;3.67;;
5646;SDS011;2845;48.626;9.362;2023-05-14T09:39:51;7.35;;;4.00;;
5646;SDS011;2845;48.626;9.362;2023-05-14T09:42:25;6.75;;;3.40;;
5646;SDS011;2845;48.626;9.362;2023-05-14T09:44:59;6.57;;;3.58;;
5646;SDS011;2845;48.626;9.362;2023-05-14T09:47:36;5.28;;;3.22;;
5646;SDS011;2845;48.626;9.362;2023-05-14T09:50:10;7.90;;;3.95;;
5646;SDS011;2845;48.626;9.362;2023-05-14T09:52:46;7.25;;;4.38;;
5646;SDS011;2845;48.626;9.362;2023-05-14T09:55:20;7.38;;;4.13;;
5646;SDS011;2845;48.626;9.362;2023-05-14T09:57:55;6.60;;;3.65;;
5646;SDS011;2845;48.626;9.362;2023-05-14T10:00:30;7.32;;;3.65;;
5646;SDS011;2845;48.626;9.362;2023-05-14T10:03:07;5.50;;;3.22;;
5646;SDS011;2845;48.626;9.362;2023-05-14T10:05:42;4.97;;;3.05;;
5646;SDS011;2845;48.626;9.362;2023-05-14T10:08:20;7.13;;;4.07;;
5646;SDS011;2845;48.626;9.362;2023-05-14T10:11:00;6.03;;;3.47;;
5646;SDS011;2845;48.626;9.362;2023-05-14T10:13:40;4.90;;;3.42;;
5646;SDS011;2845;48.626;9.362;2023-05-14T10:16:20;5.68;;;3.53;;
5646;SDS011;2845;48.626;9.362;2023-05-14T10:19:07;5.57;;;3.08;;
5646;SDS011;2845;48.626;9.362;2023-05-14T10:21:44;4.30;;;2.53;;
5646;SDS011;2845;48.626;9.362;2023-05-14T10:24:22;4.63;;;2.97;;
5646;SDS011;2845;48.626;9.362;2023-05-14T10:26:58;5.60;;;3.13;;
5646;SDS011;2845;48.626;9.362;2023-05-14T10:29:32;5.20;;;2.97;;
5646;SDS011;2845;48.626;9.362;2023-05-14T10:32:08;5.90;;;3.50;;
5646;SDS011;2845;48.626;9.362;2023-05-14T10:34:44;6.15;;;3.40;;
5646;SDS011;2845;48.626;9.362;2023-05-14T10:37:19;11.05;;;3.78;;
5646;SDS011;2845;48.626;9.362;2023-05-14T10:39:58;5.82;;;3.70;;
5646;SDS011;2845;48.626;9.362;2023-05-14T10:42:36;6.70;;;3.63;;
5646;SDS011;2845;48.626;9.362;2023-05-14T10:45:13;5.78;;;3.05;;
5646;SDS011;2845;48.626;9.362;2023-05-14T10:47:48;6.35;;;3.53;;
5646;SDS011;2845;48.626;9.362;2023-05-14T10:50:22;6.57;;;3.53;;
5646;SDS011;2845;48.626;9.362;2023-05-14T10:52:57;5.93;;;3.25;;
5646;SDS011;2845;48.626;9.362;2023-05-14T10:55:32;4.93;;;3.08;;
5646;SDS011;2845;48.626;9.362;2023-05-14T10:58:08;6.28;;;3.40;;
5646;SDS011;2845;48.626;9.362;2023-05-14T11:00:46;6.07;;;3.30;;
5646;SDS011;2845;48.626;9.362;2023-05-14T11:03:21;5.93;;;3.10;;
5646;SDS011;2845;48.626;9.362;2023-05-14T11:05:55;6.53;;;3.28;;
5646;SDS011;2845;48.626;9.362;2023-05-14T11:08:29;6.45;;;3.38;;
5646;SDS011;2845;48.626;9.362;2023-05-14T11:11:07;5.47;;;3.17;;
5646;SDS011;2845;48.626;9.362;2023-05-14T11:13:41;4.68;;;2.70;;
5646;SDS011;2845;48.626;9.362;2023-05-14T11:16:17;5.70;;;2.67;;
5646;SDS011;2845;48.626;9.362;2023-05-14T11:18:59;5.35;;;3.05;;
5646;SDS011;2845;48.626;9.362;2023-05-14T11:21:35;4.05;;;2.45;;
5646;SDS011;2845;48.626;9.362;2023-05-14T11:24:09;5.20;;;2.80;;
5646;SDS011;2845;48.626;9.362;2023-05-14T11:26:45;5.05;;;2.95;;
5646;SDS011;2845;48.626;9.362;2023-05-14T11:29:19;4.65;;;2.88;;
5646;SDS011;2845;48.626;9.362;2023-05-14T11:31:53;5.32;;;2.60;;
5646;SDS011;2845;48.626;9.362;2023-05-14T11:34:27;5.32;;;2.60;;
5646;SDS011;2845;48.626;9.362;2023-05-14T11:37:02;4.47;;;2.50;;
5646;SDS011;2845;48.626;9.362;2023-05-14T11:39:37;5.68;;;2.90;;
5646;SDS011;2845;48.626;9.362;2023-05-14T11:42:13;4.20;;;2.30;;
5646;SDS011;2845;48.626;9.362;2023-05-14T11:44:50;4.68;;;2.45;;
5646;SDS011;2845;48.626;9.362;2023-05-14T11:47:26;4.75;;;2.50;;
5646;SDS011;2845;48.626;9.362;2023-05-14T11:50:02;3.50;;;2.25;;
5646;SDS011;2845;48.626;9.362;2023-05-14T11:52:40;6.38;;;2.50;;
5646;SDS011;2845;48.626;9.362;2023-05-14T11:55:15;3.70;;;2.45;;
5646;SDS011;2845;48.626;9.362;2023-05-14T11:57:51;5.82;;;2.55;;
5646;SDS011;2845;48.626;9.362;2023-05-14T12:00:26;5.15;;;2.22;;
5646;SDS011;2845;48.626;9.362;2023-05-14T12:03:00;3.45;;;1.90;;
5646;SDS011;2845;48.626;9.362;2023-05-14T12:05:36;4.93;;;2.03;;
5646;SDS011;2845;48.626;9.362;2023-05-14T12:08:20;3.40;;;1.88;;
5646;SDS011;2845;48.626;9.362;2023-05-14T12:10:54;3.63;;;1.65;;
5646;SDS011;2845;48.626;9.362;2023-05-14T12:13:32;2.42;;;1.45;;
5646;SDS011;2845;48.626;9.362;2023-05-14T12:16:06;2.92;;;1.80;;
5646;SDS011;2845;48.626;9.362;2023-05-14T12:18:40;3.85;;;1.63;;
5646;SDS011;2845;48.626;9.362;2023-05-14T12:21:15;2.90;;;1.85;;
5646;SDS011;2845;48.626;9.362;2023-05-14T12:23:55;3.90;;;1.85;;
5646;SDS011;2845;48.626;9.362;2023-05-14T12:26:31;3.03;;;1.48;;
5646;SDS011;2845;48.626;9.362;2023-05-14T12:29:10;2.53;;;1.30;;
5646;SDS011;2845;48.626;9.362;2023-05-14T12:31:47;2.22;;;1.30;;
5646;SDS011;2845;48.626;9.362;2023-05-14T12:34:22;3.17;;;1.50;;
5646;SDS011;2845;48.626;9.362;2023-05-14T12:36:57;2.60;;;1.27;;
5646;SDS011;2845;48.626;9.362;2023-05-14T12:39:31;2.10;;;1.33;;
5646;SDS011;2845;48.626;9.362;2023-05-14T12:42:07;2.28;;;1.30;;
5646;SDS011;2845;48.626;9.362;2023-05-14T12:44:42;3.05;;;1.73;;
5646;SDS011;2845;48.626;9.362;2023-05-14T12:47:16;2.47;;;1.45;;
5646;SDS011;2845;48.626;9.362;2023-05-14T12:49:51;2.30;;;1.30;;
5646;SDS011;2845;48.626;9.362;2023-05-14T12:52:25;2.08;;;1.38;;
5646;SDS011;2845;48.626;9.362;2023-05-14T12:55:10;2.17;;;1.50;;
5646;SDS011;2845;48.626;9.362;2023-05-14T12:57:44;2.25;;;1.30;;
5646;SDS011;2845;48.626;9.362;2023-05-14T13:00:20;4.13;;;1.42;;
5646;SDS011;2845;48.626;9.362;2023-05-14T13:02:54;4.20;;;1.55;;
5646;SDS011;2845;48.626;9.362;2023-05-14T13:05:29;2.35;;;1.33;;
5646;SDS011;2845;48.626;9.362;2023-05-14T13:08:04;2.15;;;1.17;;
5646;SDS011;2845;48.626;9.362;2023-05-14T13:10:38;2.90;;;1.10;;
5646;SDS011;2845;48.626;9.362;2023-05-14T13:13:13;2.55;;;1.60;;
5646;SDS011;2845;48.626;9.362;2023-05-14T13:15:49;3.00;;;1.50;;
5646;SDS011;2845;48.626;9.362;2023-05-14T13:18:25;2.33;;;1.50;;
5646;SDS011;2845;48.626;9.362;2023-05-14T13:20:59;3.25;;;1.52;;
5646;SDS011;2845;48.626;9.362;2023-05-14T13:23:35;3.45;;;1.88;;
5646;SDS011;2845;48.626;9.362;2023-05-14T13:26:09;2.35;;;1.42;;
5646;SDS011;2845;48.626;9.362;2023-05-14T13:28:43;3.30;;;1.63;;
5646;SDS011;2845;48.626;9.362;2023-05-14T13:31:19;1.50;;;1.00;;
5646;SDS011;2845;48.626;9.362;2023-05-14T13:33:53;3.10;;;1.30;;
5646;SDS011;2845;48.626;9.362;2023-05-14T13:36:29;4.10;;;1.73;;
5646;SDS011;2845;48.626;9.362;2023-05-14T13:39:03;2.70;;;1.52;;
5646;SDS011;2845;48.626;9.362;2023-05-14T13:41:37;3.47;;;1.73;;
5646;SDS011;2845;48.626;9.362;2023-05-14T13:44:11;2.10;;;1.40;;
5646;SDS011;2845;48.626;9.362;2023-05-14T13:46:47;2.20;;;1.55;;
5646;SDS011;2845;48.626;9.362;2023-05-14T13:49:22;2.63;;;1.63;;
5646;SDS011;2845;48.626;9.362;2023-05-14T13:51:56;3.15;;;1.40;;
5646;SDS011;2845;48.626;9.362;2023-05-14T13:54:30;2.80;;;1.60;;
5646;SDS011;2845;48.626;9.362;2023-05-14T13:57:04;3.00;;;1.52;;
5646;SDS011;2845;48.626;9.362;2023-05-14T13:59:38;2.53;;;1.58;;
5646;SDS011;2845;48.626;9.362;2023-05-14T14:02:14;2.03;;;1.67;;
5646;SDS011;2845;48.626;9.362;2023-05-14T14:04:48;2.72;;;1.50;;
5646;SDS011;2845;48.626;9.362;2023-05-14T14:07:23;1.77;;;1.20;;
5646;SDS011;2845;48.626;9.362;2023-05-14T14:09:57;1.90;;;1.23;;
5646;SDS011;2845;48.626;9.362;2023-05-14T14:12:32;4.15;;;1.60;;
5646;SDS011;2845;48.626;9.362;2023-05-14T14:15:07;1.45;;;1.15;;
5646;SDS011;2845;48.626;9.362;2023-05-14T14:17:43;2.53;;;1.30;;
5646;SDS011;2845;48.626;9.362;2023-05-14T14:20:18;2.38;;;1.33;;
5646;SDS011;2845;48.626;9.362;2023-05-14T14:22:52;2.08;;;1.27;;
5646;SDS011;2845;48.626;9.362;2023-05-14T14:25:27;1.90;;;1.20;;
5646;SDS011;2845;48.626;9.362;2023-05-14T14:28:01;2.97;;;1.40;;
5646;SDS011;2845;48.626;9.362;2023-05-14T14:30:35;2.67;;;1.17;;
5646;SDS011;2845;48.626;9.362;2023-05-14T14:33:11;2.45;;;1.27;;
5646;SDS011;2845;48.626;9.362;2023-05-14T14:35:45;2.78;;;1.52;;
5646;SDS011;2845;48.626;9.362;2023-05-14T14:38:19;1.95;;;1.27;;
5646;SDS011;2845;48.626;9.362;2023-05-14T14:40:53;2.55;;;1.40;;
5646;SDS011;2845;48.626;9.362;2023-05-14T14:43:28;2.85;;;1.30;;
5646;SDS011;2845;48.626;9.362;2023-05-14T14:46:02;2.15;;;1.20;;
5646;SDS011;2845;48.626;9.362;2023-05-14T14:48:38;2.17;;;1.00;;
5646;SDS011;2845;48.626;9.362;2023-05-14T14:51:13;2.58;;;1.27;;
5646;SDS011;2845;48.626;9.362;2023-05-14T14:53:47;2.33;;;1.27;;
5646;SDS011;2845;48.626;9.362;2023-05-14T14:56:21;3.50;;;1.33;;
5646;SDS011;2845;48.626;9.362;2023-05-14T14:58:55;2.35;;;1.38;;
5646;SDS011;2845;48.626;9.362;2023-05-14T15:01:29;4.10;;;1.48;;
5646;SDS011;2845;48.626;9.362;2023-05-14T15:04:05;2.97;;;1.73;;
5646;SDS011;2845;48.626;9.362;2023-05-14T15:06:39;2.30;;;1.48;;
5646;SDS011;2845;48.626;9.362;2023-05-14T15:09:13;2.78;;;1.70;;
5646;SDS011;2845;48.626;9.362;2023-05-14T15:11:47;2.40;;;1.50;;
5646;SDS011;2845;48.626;9.362;2023-05-14T15:14:22;2.42;;;1.50;;
5646;SDS011;2845;48.626;9.362;2023-05-14T15:16:56;2.78;;;1.38;;
5646;SDS011;2845;48.626;9.362;2023-05-14T15:19:31;2.17;;;1.25;;
5646;SDS011;2845;48.626;9.362;2023-05-14T15:22:05;2.33;;;1.30;;
5646;SDS011;2845;48.626;9.362;2023-05-14T15:24:40;2.70;;;1.40;;
5646;SDS011;2845;48.626;9.362;2023-05-14T15:27:14;2.53;;;1.30;;
5646;SDS011;2845;48.626;9.362;2023-05-14T15:29:48;2.85;;;1.20;;
5646;SDS011;2845;48.626;9.362;2023-05-14T15:32:23;2.55;;;1.13;;
5646;SDS011;2845;48.626;9.362;2023-05-14T15:34:59;3.08;;;1.58;;
5646;SDS011;2845;48.626;9.362;2023-05-14T15:37:35;2.08;;;1.30;;
5646;SDS011;2845;48.626;9.362;2023-05-14T15:40:11;3.47;;;1.50;;
5646;SDS011;2845;48.626;9.362;2023-05-14T15:42:46;1.77;;;1.17;;
5646;SDS011;2845;48.626;9.362;2023-05-14T15:45:20;2.38;;;1.30;;
5646;SDS011;2845;48.626;9.362;2023-05-14T15:47:54;3.50;;;1.40;;
5646;SDS011;2845;48.626;9.362;2023-05-14T15:50:30;6.32;;;2.00;;
5646;SDS011;2845;48.626;9.362;2023-05-14T15:53:04;3.58;;;1.60;;
5646;SDS011;2845;48.626;9.362;2023-05-14T15:55:38;2.80;;;1.60;;
5646;SDS011;2845;48.626;9.362;2023-05-14T15:58:13;3.25;;;1.40;;
5646;SDS011;2845;48.626;9.362;2023-05-14T16:00:47;3.22;;;1.55;;
5646;SDS011;2845;48.626;9.362;2023-05-14T16:03:21;2.63;;;1.40;;